sensor_id;sensor_type;location;lat;lon;timestamp;pressure;altitude;pressure_sealevel;temperature;humidity
49315;BME280;36672;50.710;12.498;2023-03-23T00:01:07;97680.44;;;12.63;48.64
49315;BME280;36672;50.710;12.498;2023-03-23T00:03:37;97708.16;;;12.77;48.64
49315;BME280;36672;50.710;12.498;2023-03-23T00:06:03;97707.91;;;12.79;48.43
49315;BME280;36672;50.710;12.498;2023-03-23T00:08:33;97700.59;;;12.79;48.31
49315;BME280;36672;50.710;12.498;2023-03-23T00:10:58;97708.50;;;12.81;48.20
49315;BME280;36672;50.710;12.498;2023-03-23T00:13:26;97702.59;;;12.84;47.83
49315;BME280;36672;50.710;12.498;2023-03-23T00:15:51;97691.06;;;12.88;48.11
49315;BME280;36672;50.710;12.498;2023-03-23T00:18:17;97695.44;;;12.89;47.95
49315;BME280;36672;50.710;12.498;2023-03-23T00:20:46;97689.53;;;12.93;47.63
49315;BME280;36672;50.710;12.498;2023-03-23T00:23:14;97690.13;;;12.95;47.61
49315;BME280;36672;50.710;12.498;2023-03-23T00:25:44;97692.34;;;12.98;47.20
49315;BME280;36672;50.710;12.498;2023-03-23T00:28:10;97693.53;;;13.02;47.29
49315;BME280;36672;50.710;12.498;2023-03-23T00:30:37;97695.19;;;13.03;46.63
49315;BME280;36672;50.710;12.498;2023-03-23T00:33:03;97693.06;;;13.05;46.71
49315;BME280;36672;50.710;12.498;2023-03-23T00:35:29;97686.09;;;13.09;46.69
49315;BME280;36672;50.710;12.498;2023-03-23T00:37:55;97682.09;;;13.12;46.39
49315;BME280;36672;50.710;12.498;2023-03-23T00:40:21;97677.03;;;13.15;45.92
49315;BME280;36672;50.710;12.498;2023-03-23T00:42:46;97686.31;;;13.19;45.71
49315;BME280;36672;50.710;12.498;2023-03-23T00:45:13;97678.53;;;13.23;45.68
49315;BME280;36672;50.710;12.498;2023-03-23T00:47:39;97674.78;;;13.24;45.80
49315;BME280;36672;50.710;12.498;2023-03-23T00:50:06;97665.78;;;13.24;45.75
49315;BME280;36672;50.710;12.498;2023-03-23T00:52:32;97668.75;;;13.22;45.58
49315;BME280;36672;50.710;12.498;2023-03-23T00:54:57;97681.50;;;13.21;45.62
49315;BME280;36672;50.710;12.498;2023-03-23T00:57:22;97675.03;;;13.23;45.68
49315;BME280;36672;50.710;12.498;2023-03-23T00:59:49;97654.72;;;13.25;45.96
49315;BME280;36672;50.710;12.498;2023-03-23T01:02:14;97654.72;;;13.25;45.70
49315;BME280;36672;50.710;12.498;2023-03-23T01:04:41;97660.38;;;13.24;45.89
49315;BME280;36672;50.710;12.498;2023-03-23T01:07:09;97649.53;;;13.24;45.84
49315;BME280;36672;50.710;12.498;2023-03-23T01:09:37;97648.47;;;13.25;45.68
49315;BME280;36672;50.710;12.498;2023-03-23T01:12:05;97640.31;;;13.25;45.79
49315;BME280;36672;50.710;12.498;2023-03-23T01:14:31;97640.31;;;13.25;45.97
49315;BME280;36672;50.710;12.498;2023-03-23T01:16:56;97644.09;;;13.24;46.09
49315;BME280;36672;50.710;12.498;2023-03-23T01:19:21;97639.75;;;13.23;46.06
49315;BME280;36672;50.710;12.498;2023-03-23T01:21:47;97635.63;;;13.20;45.95
49315;BME280;36672;50.710;12.498;2023-03-23T01:24:12;97627.25;;;13.21;46.02
49315;BME280;36672;50.710;12.498;2023-03-23T01:26:37;97626.75;;;13.25;46.04
49315;BME280;36672;50.710;12.498;2023-03-23T01:29:03;97625.09;;;13.24;45.98
49315;BME280;36672;50.710;12.498;2023-03-23T01:31:28;97616.50;;;13.27;46.12
49315;BME280;36672;50.710;12.498;2023-03-23T01:33:53;97614.03;;;13.25;46.04
49315;BME280;36672;50.710;12.498;2023-03-23T01:36:21;97616.75;;;13.25;46.24
49315;BME280;36672;50.710;12.498;2023-03-23T01:38:48;97623.81;;;13.26;46.47
49315;BME280;36672;50.710;12.498;2023-03-23T01:41:14;97632.19;;;13.25;46.60
49315;BME280;36672;50.710;12.498;2023-03-23T01:46:26;97628.75;;;13.29;46.89
49315;BME280;36672;50.710;12.498;2023-03-23T01:48:52;97626.06;;;13.29;46.86
49315;BME280;36672;50.710;12.498;2023-03-23T01:51:18;97623.59;;;13.28;46.89
49315;BME280;36672;50.710;12.498;2023-03-23T01:53:46;97624.41;;;13.28;47.04
49315;BME280;36672;50.710;12.498;2023-03-23T01:56:12;97624.66;;;13.27;47.00
49315;BME280;36672;50.710;12.498;2023-03-23T01:58:39;97618.38;;;13.26;47.29
49315;BME280;36672;50.710;12.498;2023-03-23T02:01:06;97614.50;;;13.22;47.73
49315;BME280;36672;50.710;12.498;2023-03-23T02:03:32;97615.81;;;13.19;47.68
49315;BME280;36672;50.710;12.498;2023-03-23T02:05:59;97606.00;;;13.18;47.46
49315;BME280;36672;50.710;12.498;2023-03-23T02:08:26;97611.94;;;13.15;47.75
49315;BME280;36672;50.710;12.498;2023-03-23T02:10:53;97611.94;;;13.15;48.21
49315;BME280;36672;50.710;12.498;2023-03-23T02:13:18;97612.75;;;13.16;48.31
49315;BME280;36672;50.710;12.498;2023-03-23T02:18:21;97624.88;;;13.13;48.50
49315;BME280;36672;50.710;12.498;2023-03-23T02:21:15;97614.28;;;13.12;48.54
49315;BME280;36672;50.710;12.498;2023-03-23T02:34:16;97616.53;;;13.15;49.10
49315;BME280;36672;50.710;12.498;2023-03-23T02:36:56;97612.38;;;13.12;49.10
49315;BME280;36672;50.710;12.498;2023-03-23T02:39:33;97608.88;;;13.12;49.44
49315;BME280;36672;50.710;12.498;2023-03-23T02:42:09;97603.09;;;13.08;49.24
49315;BME280;36672;50.710;12.498;2023-03-23T02:44:37;97595.44;;;13.05;49.49
49315;BME280;36672;50.710;12.498;2023-03-23T02:47:04;97596.50;;;13.04;49.46
49315;BME280;36672;50.710;12.498;2023-03-23T02:49:32;97602.97;;;13.03;49.61
49315;BME280;36672;50.710;12.498;2023-03-23T02:52:01;97597.22;;;12.99;49.78
49315;BME280;36672;50.710;12.498;2023-03-23T02:54:28;97588.50;;;12.97;49.90
49315;BME280;36672;50.710;12.498;2023-03-23T02:56:53;97593.22;;;12.90;50.17
49315;BME280;36672;50.710;12.498;2023-03-23T02:59:19;97588.84;;;12.89;50.38
49315;BME280;36672;50.710;12.498;2023-03-23T03:01:46;97594.53;;;12.87;50.00
49315;BME280;36672;50.710;12.498;2023-03-23T03:04:14;97591.81;;;12.87;50.02
49315;BME280;36672;50.710;12.498;2023-03-23T03:15:01;97602.44;;;12.77;50.79
49315;BME280;36672;50.710;12.498;2023-03-23T03:17:32;97602.31;;;12.72;50.81
49315;BME280;36672;50.710;12.498;2023-03-23T03:20:01;97611.16;;;12.67;51.25
49315;BME280;36672;50.710;12.498;2023-03-23T03:22:35;97600.78;;;12.64;51.33
49315;BME280;36672;50.710;12.498;2023-03-23T03:25:02;97594.78;;;12.62;51.48
49315;BME280;36672;50.710;12.498;2023-03-23T03:27:28;97597.13;;;12.59;51.54
49315;BME280;36672;50.710;12.498;2023-03-23T03:29:55;97601.13;;;12.56;51.51
49315;BME280;36672;50.710;12.498;2023-03-23T03:32:24;97580.50;;;12.55;51.30
49315;BME280;36672;50.710;12.498;2023-03-23T03:34:51;97592.88;;;12.51;51.53
49315;BME280;36672;50.710;12.498;2023-03-23T03:37:17;97586.06;;;12.48;52.05
49315;BME280;36672;50.710;12.498;2023-03-23T03:39:43;97578.16;;;12.47;51.74
49315;BME280;36672;50.710;12.498;2023-03-23T03:42:08;97575.09;;;12.43;52.23
49315;BME280;36672;50.710;12.498;2023-03-23T03:44:34;97569.31;;;12.39;51.91
49315;BME280;36672;50.710;12.498;2023-03-23T03:46:59;97569.81;;;12.36;51.76
49315;BME280;36672;50.710;12.498;2023-03-23T03:49:25;97571.09;;;12.34;51.96
49315;BME280;36672;50.710;12.498;2023-03-23T03:51:50;97569.19;;;12.34;51.72
49315;BME280;36672;50.710;12.498;2023-03-23T03:54:16;97569.81;;;12.36;51.62
49315;BME280;36672;50.710;12.498;2023-03-23T03:56:41;97562.00;;;12.40;51.68
49315;BME280;36672;50.710;12.498;2023-03-23T03:59:07;97549.06;;;12.42;51.43
49315;BME280;36672;50.710;12.498;2023-03-23T04:01:34;97552.13;;;12.46;51.45
49315;BME280;36672;50.710;12.498;2023-03-23T04:04:00;97558.16;;;12.48;51.66
49315;BME280;36672;50.710;12.498;2023-03-23T04:06:25;97553.53;;;12.48;51.26
49315;BME280;36672;50.710;12.498;2023-03-23T04:08:53;97556.13;;;12.55;51.10
49315;BME280;36672;50.710;12.498;2023-03-23T04:11:18;97549.41;;;12.57;51.32
49315;BME280;36672;50.710;12.498;2023-03-23T04:13:43;97560.34;;;12.63;51.13
49315;BME280;36672;50.710;12.498;2023-03-23T04:16:08;97562.84;;;12.64;50.94
49315;BME280;36672;50.710;12.498;2023-03-23T04:18:34;97558.72;;;12.62;51.01
49315;BME280;36672;50.710;12.498;2023-03-23T04:21:00;97550.34;;;12.63;51.20
49315;BME280;36672;50.710;12.498;2023-03-23T04:23:26;97559.78;;;12.61;51.10
49315;BME280;36672;50.710;12.498;2023-03-23T04:25:52;97548.34;;;12.59;51.02
49315;BME280;36672;50.710;12.498;2023-03-23T04:28:21;97560.84;;;12.60;50.92
49315;BME280;36672;50.710;12.498;2023-03-23T04:30:48;97548.34;;;12.59;50.89
49315;BME280;36672;50.710;12.498;2023-03-23T04:33:17;97558.63;;;12.56;51.20
49315;BME280;36672;50.710;12.498;2023-03-23T04:35:43;97572.97;;;12.57;51.39
49315;BME280;36672;50.710;12.498;2023-03-23T04:38:10;97562.13;;;12.57;51.60
49315;BME280;36672;50.710;12.498;2023-03-23T04:40:36;97565.44;;;12.59;51.47
49315;BME280;36672;50.710;12.498;2023-03-23T04:43:02;97565.22;;;12.61;51.36
49315;BME280;36672;50.710;12.498;2023-03-23T04:45:30;97579.31;;;12.63;51.42
49315;BME280;36672;50.710;12.498;2023-03-23T04:47:56;97574.50;;;12.65;51.40
49315;BME280;36672;50.710;12.498;2023-03-23T04:50:29;97570.50;;;12.67;51.15
49315;BME280;36672;50.710;12.498;2023-03-23T04:52:56;97571.91;;;12.70;51.20
49315;BME280;36672;50.710;12.498;2023-03-23T04:55:21;97570.00;;;12.70;51.19
49315;BME280;36672;50.710;12.498;2023-03-23T04:57:47;97569.78;;;12.72;51.01
49315;BME280;36672;50.710;12.498;2023-03-23T05:00:12;97582.63;;;12.77;50.75
49315;BME280;36672;50.710;12.498;2023-03-23T05:02:39;97559.63;;;12.79;50.74
49315;BME280;36672;50.710;12.498;2023-03-23T05:05:09;97573.44;;;12.78;50.65
49315;BME280;36672;50.710;12.498;2023-03-23T05:07:35;97563.44;;;12.78;50.61
49315;BME280;36672;50.710;12.498;2023-03-23T05:10:00;97575.09;;;12.79;50.69
49315;BME280;36672;50.710;12.498;2023-03-23T05:12:26;97588.63;;;12.79;50.56
49315;BME280;36672;50.710;12.498;2023-03-23T05:14:51;97581.09;;;12.81;50.47
49315;BME280;36672;50.710;12.498;2023-03-23T05:17:17;97575.44;;;12.82;50.91
49315;BME280;36672;50.710;12.498;2023-03-23T05:19:43;97578.38;;;12.81;50.57
49315;BME280;36672;50.710;12.498;2023-03-23T05:22:12;97581.66;;;12.83;50.71
49315;BME280;36672;50.710;12.498;2023-03-23T05:24:37;97577.56;;;12.80;50.65
49315;BME280;36672;50.710;12.498;2023-03-23T05:27:02;97597.38;;;12.81;50.77
49315;BME280;36672;50.710;12.498;2023-03-23T05:29:28;97583.56;;;12.82;50.74
49315;BME280;36672;50.710;12.498;2023-03-23T05:31:55;97595.34;;;12.88;51.32
49315;BME280;36672;50.710;12.498;2023-03-23T05:34:20;97581.31;;;12.91;50.54
49315;BME280;36672;50.710;12.498;2023-03-23T05:36:46;97579.19;;;12.93;50.33
49315;BME280;36672;50.710;12.498;2023-03-23T05:39:12;97582.72;;;12.94;50.49
49315;BME280;36672;50.710;12.498;2023-03-23T05:41:38;97581.69;;;12.95;50.69
49315;BME280;36672;50.710;12.498;2023-03-23T05:44:03;97580.38;;;12.97;50.88
49315;BME280;36672;50.710;12.498;2023-03-23T05:46:29;97589.91;;;13.00;50.70
49315;BME280;36672;50.710;12.498;2023-03-23T05:48:54;97594.28;;;13.01;50.90
49315;BME280;36672;50.710;12.498;2023-03-23T05:51:19;97594.84;;;13.03;50.53
49315;BME280;36672;50.710;12.498;2023-03-23T05:53:45;97581.88;;;13.05;50.51
49315;BME280;36672;50.710;12.498;2023-03-23T05:56:10;97585.75;;;13.09;50.13
49315;BME280;36672;50.710;12.498;2023-03-23T05:58:36;97590.38;;;13.09;50.36
49315;BME280;36672;50.710;12.498;2023-03-23T06:01:03;97600.13;;;13.10;50.32
49315;BME280;36672;50.710;12.498;2023-03-23T06:03:30;97596.00;;;13.07;50.34
49315;BME280;36672;50.710;12.498;2023-03-23T06:05:55;97594.72;;;13.10;50.38
49315;BME280;36672;50.710;12.498;2023-03-23T06:08:21;97609.13;;;13.10;50.38
49315;BME280;36672;50.710;12.498;2023-03-23T06:10:47;97608.28;;;13.10;50.64
49315;BME280;36672;50.710;12.498;2023-03-23T06:13:13;97607.69;;;13.08;50.57
49315;BME280;36672;50.710;12.498;2023-03-23T06:15:39;97617.94;;;13.17;50.41
49315;BME280;36672;50.710;12.498;2023-03-23T06:18:04;97618.06;;;13.23;50.22
49315;BME280;36672;50.710;12.498;2023-03-23T06:20:30;97624.41;;;13.28;50.21
49315;BME280;36672;50.710;12.498;2023-03-23T06:22:55;97618.50;;;13.31;50.01
49315;BME280;36672;50.710;12.498;2023-03-23T06:25:21;97621.13;;;13.38;49.98
49315;BME280;36672;50.710;12.498;2023-03-23T06:27:47;97634.78;;;13.31;49.93
49315;BME280;36672;50.710;12.498;2023-03-23T06:30:12;97627.59;;;13.37;49.80
49315;BME280;36672;50.710;12.498;2023-03-23T06:32:40;97629.09;;;13.45;49.92
49315;BME280;36672;50.710;12.498;2023-03-23T06:35:06;97638.66;;;13.47;49.55
49315;BME280;36672;50.710;12.498;2023-03-23T06:37:34;97635.34;;;13.57;49.45
49315;BME280;36672;50.710;12.498;2023-03-23T06:40:00;97630.44;;;13.71;49.27
49315;BME280;36672;50.710;12.498;2023-03-23T06:42:25;97633.94;;;13.83;49.00
49315;BME280;36672;50.710;12.498;2023-03-23T06:44:51;97637.00;;;13.87;48.82
49315;BME280;36672;50.710;12.498;2023-03-23T06:47:16;97645.56;;;13.96;48.74
49315;BME280;36672;50.710;12.498;2023-03-23T06:49:41;97647.09;;;13.92;49.41
49315;BME280;36672;50.710;12.498;2023-03-23T06:52:07;97647.34;;;13.90;48.95
49315;BME280;36672;50.710;12.498;2023-03-23T06:54:33;97638.00;;;13.98;49.01
49315;BME280;36672;50.710;12.498;2023-03-23T06:56:58;97653.56;;;14.02;49.51
49315;BME280;36672;50.710;12.498;2023-03-23T06:59:23;97647.28;;;14.02;48.88
49315;BME280;36672;50.710;12.498;2023-03-23T07:01:48;97646.31;;;13.91;49.04
49315;BME280;36672;50.710;12.498;2023-03-23T07:04:14;97650.97;;;13.96;49.34
49315;BME280;36672;50.710;12.498;2023-03-23T07:06:39;97652.88;;;13.95;49.16
49315;BME280;36672;50.710;12.498;2023-03-23T07:09:05;97650.97;;;13.96;49.31
49315;BME280;36672;50.710;12.498;2023-03-23T07:11:31;97645.34;;;13.97;49.62
49315;BME280;36672;50.710;12.498;2023-03-23T07:13:57;97651.09;;;14.01;49.42
49315;BME280;36672;50.710;12.498;2023-03-23T07:16:22;97651.72;;;13.91;49.76
49315;BME280;36672;50.710;12.498;2023-03-23T07:18:47;97655.94;;;13.99;50.05
49315;BME280;36672;50.710;12.498;2023-03-23T07:21:13;97651.66;;;14.03;49.76
49315;BME280;36672;50.710;12.498;2023-03-23T07:23:38;97647.97;;;14.09;50.39
49315;BME280;36672;50.710;12.498;2023-03-23T07:26:03;97656.94;;;14.10;49.77
49315;BME280;36672;50.710;12.498;2023-03-23T07:28:29;97658.34;;;14.12;49.53
49315;BME280;36672;50.710;12.498;2023-03-23T07:30:54;97655.97;;;14.16;49.31
49315;BME280;36672;50.710;12.498;2023-03-23T07:33:20;97659.28;;;14.18;49.63
49315;BME280;36672;50.710;12.498;2023-03-23T07:35:46;97664.47;;;14.19;49.43
49315;BME280;36672;50.710;12.498;2023-03-23T07:38:12;97656.41;;;14.25;49.19
49315;BME280;36672;50.710;12.498;2023-03-23T07:40:38;97662.25;;;14.33;49.16
49315;BME280;36672;50.710;12.498;2023-03-23T07:43:04;97667.88;;;14.61;49.05
49315;BME280;36672;50.710;12.498;2023-03-23T07:45:29;97673.75;;;14.87;49.06
49315;BME280;36672;50.710;12.498;2023-03-23T07:47:56;97670.09;;;14.98;51.02
49315;BME280;36672;50.710;12.498;2023-03-23T07:50:21;97672.56;;;14.99;52.13
49315;BME280;36672;50.710;12.498;2023-03-23T07:52:49;97668.91;;;14.89;50.73
49315;BME280;36672;50.710;12.498;2023-03-23T07:55:14;97685.47;;;14.70;51.81
49315;BME280;36672;50.710;12.498;2023-03-23T07:57:52;97675.97;;;14.56;51.90
49315;BME280;36672;50.710;12.498;2023-03-23T08:00:18;97680.97;;;14.47;52.58
49315;BME280;36672;50.710;12.498;2023-03-23T08:02:49;97679.31;;;14.46;55.24
49315;BME280;36672;50.710;12.498;2023-03-23T08:05:15;97688.03;;;14.31;55.42
49315;BME280;36672;50.710;12.498;2023-03-23T08:07:41;97692.13;;;14.16;55.80
49315;BME280;36672;50.710;12.498;2023-03-23T08:10:07;97692.16;;;14.05;55.99
49315;BME280;36672;50.710;12.498;2023-03-23T08:12:36;97717.16;;;13.78;57.25
49315;BME280;36672;50.710;12.498;2023-03-23T08:15:01;97698.44;;;13.64;58.34
49315;BME280;36672;50.710;12.498;2023-03-23T08:17:27;97699.03;;;13.66;58.11
49315;BME280;36672;50.710;12.498;2023-03-23T08:19:52;97690.63;;;13.68;58.57
49315;BME280;36672;50.710;12.498;2023-03-23T08:22:17;97700.47;;;13.57;57.85
49315;BME280;36672;50.710;12.498;2023-03-23T08:24:42;97706.84;;;13.51;58.69
49315;BME280;36672;50.710;12.498;2023-03-23T08:27:08;97703.06;;;13.52;57.54
49315;BME280;36672;50.710;12.498;2023-03-23T08:29:34;97692.06;;;13.59;57.47
49315;BME280;36672;50.710;12.498;2023-03-23T08:31:59;97701.63;;;13.73;57.15
49315;BME280;36672;50.710;12.498;2023-03-23T08:34:24;97690.16;;;13.71;56.32
49315;BME280;36672;50.710;12.498;2023-03-23T08:36:50;97693.78;;;13.77;55.75
49315;BME280;36672;50.710;12.498;2023-03-23T08:39:16;97692.28;;;13.81;56.03
49315;BME280;36672;50.710;12.498;2023-03-23T08:41:43;97689.88;;;13.84;55.27
49315;BME280;36672;50.710;12.498;2023-03-23T08:44:08;97702.47;;;13.91;55.22
49315;BME280;36672;50.710;12.498;2023-03-23T08:46:34;97693.28;;;13.92;55.29
49315;BME280;36672;50.710;12.498;2023-03-23T08:48:59;97698.56;;;13.98;55.18
49315;BME280;36672;50.710;12.498;2023-03-23T08:51:24;97686.50;;;14.06;54.81
49315;BME280;36672;50.710;12.498;2023-03-23T08:53:51;97697.66;;;13.93;55.00
49315;BME280;36672;50.710;12.498;2023-03-23T08:56:17;97699.25;;;14.06;55.14
49315;BME280;36672;50.710;12.498;2023-03-23T08:58:42;97699.00;;;14.07;55.24
49315;BME280;36672;50.710;12.498;2023-03-23T09:01:07;97697.06;;;14.19;54.92
49315;BME280;36672;50.710;12.498;2023-03-23T09:03:33;97690.34;;;14.39;54.36
49315;BME280;36672;50.710;12.498;2023-03-23T09:06:00;97701.88;;;14.46;53.69
49315;BME280;36672;50.710;12.498;2023-03-23T09:08:27;97697.06;;;14.65;53.87
49315;BME280;36672;50.710;12.498;2023-03-23T09:10:54;97704.56;;;14.75;53.95
49315;BME280;36672;50.710;12.498;2023-03-23T09:13:19;97707.63;;;14.79;53.88
49315;BME280;36672;50.710;12.498;2023-03-23T09:15:45;97704.59;;;14.92;53.05
49315;BME280;36672;50.710;12.498;2023-03-23T09:18:11;97699.44;;;14.96;53.23
49315;BME280;36672;50.710;12.498;2023-03-23T09:20:37;97688.50;;;14.91;53.23
49315;BME280;36672;50.710;12.498;2023-03-23T09:23:03;97699.63;;;14.89;53.30
49315;BME280;36672;50.710;12.498;2023-03-23T09:25:28;97698.63;;;14.95;52.97
49315;BME280;36672;50.710;12.498;2023-03-23T09:27:54;97702.69;;;14.93;53.35
49315;BME280;36672;50.710;12.498;2023-03-23T09:30:22;97711.97;;;14.97;52.77
49315;BME280;36672;50.710;12.498;2023-03-23T09:32:47;97702.00;;;14.86;53.43
49315;BME280;36672;50.710;12.498;2023-03-23T09:35:13;97698.66;;;14.78;54.15
49315;BME280;36672;50.710;12.498;2023-03-23T09:37:39;97713.16;;;14.84;53.37
49315;BME280;36672;50.710;12.498;2023-03-23T09:40:06;97721.72;;;14.93;53.72
49315;BME280;36672;50.710;12.498;2023-03-23T09:45:12;97720.66;;;14.94;53.55
49315;BME280;36672;50.710;12.498;2023-03-23T09:47:49;97739.78;;;14.99;53.96
49315;BME280;36672;50.710;12.498;2023-03-23T09:50:16;97740.66;;;15.05;53.53
49315;BME280;36672;50.710;12.498;2023-03-23T09:55:10;97735.31;;;14.93;54.26
49315;BME280;36672;50.710;12.498;2023-03-23T10:00:25;97718.94;;;14.71;55.04
49315;BME280;36672;50.710;12.498;2023-03-23T10:03:07;97735.41;;;14.81;55.19
49315;BME280;36672;50.710;12.498;2023-03-23T10:05:39;97736.47;;;14.97;55.12
49315;BME280;36672;50.710;12.498;2023-03-23T10:08:09;97728.88;;;15.16;54.87
49315;BME280;36672;50.710;12.498;2023-03-23T10:10:46;97727.97;;;15.10;54.43
49315;BME280;36672;50.710;12.498;2023-03-23T10:13:23;97741.50;;;15.05;54.82
49315;BME280;36672;50.710;12.498;2023-03-23T10:15:50;97732.19;;;15.01;55.07
49315;BME280;36672;50.710;12.498;2023-03-23T10:20:53;97736.97;;;14.94;55.38
49315;BME280;36672;50.710;12.498;2023-03-23T10:25:49;97727.47;;;14.79;55.87
49315;BME280;36672;50.710;12.498;2023-03-23T10:35:53;97742.94;;;14.62;56.26
49315;BME280;36672;50.710;12.498;2023-03-23T10:38:24;97739.13;;;14.63;56.32
49315;BME280;36672;50.710;12.498;2023-03-23T10:40:54;97753.38;;;14.53;55.95
49315;BME280;36672;50.710;12.498;2023-03-23T10:43:20;97754.00;;;14.43;56.94
49315;BME280;36672;50.710;12.498;2023-03-23T10:45:48;97756.31;;;14.34;57.33
49315;BME280;36672;50.710;12.498;2023-03-23T10:48:28;97764.69;;;14.33;57.04
49315;BME280;36672;50.710;12.498;2023-03-23T10:50:56;97752.81;;;14.22;57.92
49315;BME280;36672;50.710;12.498;2023-03-23T10:53:23;97755.31;;;14.12;58.45
49315;BME280;36672;50.710;12.498;2023-03-23T10:55:49;97753.41;;;13.83;59.34
49315;BME280;36672;50.710;12.498;2023-03-23T10:58:28;97753.06;;;13.80;59.81
49315;BME280;36672;50.710;12.498;2023-03-23T11:00:54;97753.88;;;13.80;59.93
49315;BME280;36672;50.710;12.498;2023-03-23T11:03:22;97775.03;;;13.78;60.66
49315;BME280;36672;50.710;12.498;2023-03-23T11:05:50;97768.75;;;13.78;60.99
49315;BME280;36672;50.710;12.498;2023-03-23T11:08:18;97772.97;;;13.85;61.38
49315;BME280;36672;50.710;12.498;2023-03-23T11:10:48;97769.06;;;13.93;60.91
49315;BME280;36672;50.710;12.498;2023-03-23T11:13:15;97768.28;;;13.81;61.71
49315;BME280;36672;50.710;12.498;2023-03-23T11:15:41;97753.13;;;13.97;61.24
49315;BME280;36672;50.710;12.498;2023-03-23T11:18:09;97754.63;;;14.05;60.27
49315;BME280;36672;50.710;12.498;2023-03-23T11:20:39;97761.69;;;14.17;59.72
49315;BME280;36672;50.710;12.498;2023-03-23T11:23:49;97758.81;;;14.24;59.58
49315;BME280;36672;50.710;12.498;2023-03-23T11:26:37;97748.84;;;14.42;58.96
49315;BME280;36672;50.710;12.498;2023-03-23T11:28:45;97760.84;;;14.75;57.73
49315;BME280;36672;50.710;12.498;2023-03-23T11:31:11;97747.41;;;15.02;56.80
49315;BME280;36672;50.710;12.498;2023-03-23T11:33:57;97761.66;;;15.43;55.89
49315;BME280;36672;50.710;12.498;2023-03-23T11:36:40;97756.44;;;15.59;55.09
49315;BME280;36672;50.710;12.498;2023-03-23T11:39:19;97752.69;;;15.43;55.25
49315;BME280;36672;50.710;12.498;2023-03-23T11:41:46;97761.66;;;15.43;54.83
49315;BME280;36672;50.710;12.498;2023-03-23T11:44:11;97760.88;;;15.65;54.62
49315;BME280;36672;50.710;12.498;2023-03-23T11:47:00;97751.09;;;15.86;54.16
49315;BME280;36672;50.710;12.498;2023-03-23T11:52:02;97754.47;;;15.76;53.77
49315;BME280;36672;50.710;12.498;2023-03-23T11:54:32;97754.91;;;15.85;54.21
49315;BME280;36672;50.710;12.498;2023-03-23T11:56:58;97752.97;;;15.63;53.78
49315;BME280;36672;50.710;12.498;2023-03-23T11:59:28;97746.59;;;15.58;53.60
49315;BME280;36672;50.710;12.498;2023-03-23T12:01:57;97745.75;;;15.35;54.26
49315;BME280;36672;50.710;12.498;2023-03-23T12:04:40;97750.69;;;15.38;54.34
49315;BME280;36672;50.710;12.498;2023-03-23T12:07:17;97742.41;;;15.50;54.28
49315;BME280;36672;50.710;12.498;2023-03-23T12:14:59;97731.50;;;15.28;53.67
49315;BME280;36672;50.710;12.498;2023-03-23T12:17:40;97733.63;;;15.26;54.07
49315;BME280;36672;50.710;12.498;2023-03-23T12:27:59;97739.03;;;15.04;55.06
49315;BME280;36672;50.710;12.498;2023-03-23T12:35:36;97746.84;;;15.34;53.77
49315;BME280;36672;50.710;12.498;2023-03-23T12:41:39;97749.38;;;15.24;54.24
49315;BME280;36672;50.710;12.498;2023-03-23T12:43:48;97749.53;;;15.51;54.33
49315;BME280;36672;50.710;12.498;2023-03-23T12:46:24;97733.31;;;15.61;53.68
49315;BME280;36672;50.710;12.498;2023-03-23T12:49:00;97737.06;;;15.77;53.42
49315;BME280;36672;50.710;12.498;2023-03-23T12:51:37;97746.56;;;15.75;52.84
49315;BME280;36672;50.710;12.498;2023-03-23T12:54:13;97739.97;;;15.88;53.08
49315;BME280;36672;50.710;12.498;2023-03-23T12:56:52;97733.56;;;15.99;52.59
49315;BME280;36672;50.710;12.498;2023-03-23T13:01:46;97736.72;;;15.91;52.88
49315;BME280;36672;50.710;12.498;2023-03-23T13:04:24;97731.09;;;15.97;52.47
49315;BME280;36672;50.710;12.498;2023-03-23T13:06:51;97738.94;;;15.94;53.34
49315;BME280;36672;50.710;12.498;2023-03-23T13:09:17;97737.94;;;15.61;53.38
49315;BME280;36672;50.710;12.498;2023-03-23T13:11:44;97735.88;;;15.29;54.25
49315;BME280;36672;50.710;12.498;2023-03-23T13:14:25;97724.41;;;15.27;54.89
49315;BME280;36672;50.710;12.498;2023-03-23T13:22:40;97711.91;;;15.87;54.10
49315;BME280;36672;50.710;12.498;2023-03-23T13:25:10;97706.41;;;16.09;53.35
49315;BME280;36672;50.710;12.498;2023-03-23T13:27:38;97716.38;;;16.48;51.88
49315;BME280;36672;50.710;12.498;2023-03-23T13:30:04;97708.47;;;16.84;51.77
49315;BME280;36672;50.710;12.498;2023-03-23T13:35:00;97724.66;;;17.28;50.13
49315;BME280;36672;50.710;12.498;2023-03-23T13:37:26;97713.44;;;17.73;49.14
49315;BME280;36672;50.710;12.498;2023-03-23T13:50:30;97703.22;;;18.06;47.29
49315;BME280;36672;50.710;12.498;2023-03-23T14:02:58;97709.75;;;16.44;51.12
49315;BME280;36672;50.710;12.498;2023-03-23T14:05:29;97699.03;;;16.32;50.42
49315;BME280;36672;50.710;12.498;2023-03-23T14:10:41;97706.78;;;16.18;50.42
49315;BME280;36672;50.710;12.498;2023-03-23T14:13:14;97699.94;;;16.16;50.42
49315;BME280;36672;50.710;12.498;2023-03-23T14:15:41;97691.13;;;16.08;50.64
49315;BME280;36672;50.710;12.498;2023-03-23T14:18:11;97689.84;;;16.16;50.97
49315;BME280;36672;50.710;12.498;2023-03-23T14:20:38;97689.47;;;16.29;50.94
49315;BME280;36672;50.710;12.498;2023-03-23T14:23:05;97684.72;;;16.47;50.68
49315;BME280;36672;50.710;12.498;2023-03-23T14:25:30;97689.94;;;16.54;50.20
49315;BME280;36672;50.710;12.498;2023-03-23T14:27:59;97695.78;;;16.35;50.22
49315;BME280;36672;50.710;12.498;2023-03-23T14:30:25;97701.47;;;16.34;50.39
49315;BME280;36672;50.710;12.498;2023-03-23T14:32:51;97704.50;;;16.10;50.23
49315;BME280;36672;50.710;12.498;2023-03-23T14:35:25;97697.97;;;15.84;51.66